sensor_id;sensor_type;location;lat;lon;timestamp;P1;durP1;ratioP1;P2;durP2;ratioP2
20861;SDS011;10591;52.532;13.348;2023-02-28T00:02:01;5.85;;;4.95;;
20861;SDS011;10591;52.532;13.348;2023-02-28T00:04:32;8.73;;;5.43;;
20861;SDS011;10591;52.532;13.348;2023-02-28T00:07:02;8.40;;;5.47;;
20861;SDS011;10591;52.532;13.348;2023-02-28T00:09:33;9.45;;;7.03;;
20861;SDS011;10591;52.532;13.348;2023-02-28T00:12:03;9.30;;;6.37;;
20861;SDS011;10591;52.532;13.348;2023-02-28T00:14:36;7.90;;;5.73;;
20861;SDS011;10591;52.532;13.348;2023-02-28T00:17:06;8.10;;;5.85;;
20861;SDS011;10591;52.532;13.348;2023-02-28T00:19:37;9.10;;;5.67;;
20861;SDS011;10591;52.532;13.348;2023-02-28T00:22:08;7.67;;;5.28;;
20861;SDS011;10591;52.532;13.348;2023-02-28T00:24:39;6.67;;;5.33;;
20861;SDS011;10591;52.532;13.348;2023-02-28T00:27:09;7.92;;;5.03;;
20861;SDS011;10591;52.532;13.348;2023-02-28T00:29:40;7.83;;;5.28;;
20861;SDS011;10591;52.532;13.348;2023-02-28T00:32:10;7.43;;;4.47;;
20861;SDS011;10591;52.532;13.348;2023-02-28T00:34:42;6.72;;;4.80;;
20861;SDS011;10591;52.532;13.348;2023-02-28T00:37:13;6.53;;;4.33;;
20861;SDS011;10591;52.532;13.348;2023-02-28T00:39:46;6.90;;;4.50;;
20861;SDS011;10591;52.532;13.348;2023-02-28T00:42:16;5.37;;;3.80;;
20861;SDS011;10591;52.532;13.348;2023-02-28T00:44:47;6.37;;;4.00;;
20861;SDS011;10591;52.532;13.348;2023-02-28T00:47:18;5.60;;;4.30;;
20861;SDS011;10591;52.532;13.348;2023-02-28T00:49:49;6.87;;;4.78;;
20861;SDS011;10591;52.532;13.348;2023-02-28T00:52:19;5.97;;;4.35;;
20861;SDS011;10591;52.532;13.348;2023-02-28T00:54:50;6.47;;;4.20;;
20861;SDS011;10591;52.532;13.348;2023-02-28T00:57:21;4.97;;;3.45;;
20861;SDS011;10591;52.532;13.348;2023-02-28T00:59:51;5.90;;;4.43;;
20861;SDS011;10591;52.532;13.348;2023-02-28T01:02:25;5.07;;;3.90;;
20861;SDS011;10591;52.532;13.348;2023-02-28T01:04:56;5.58;;;4.00;;
20861;SDS011;10591;52.532;13.348;2023-02-28T01:07:26;6.10;;;4.00;;
20861;SDS011;10591;52.532;13.348;2023-02-28T01:09:57;6.37;;;4.15;;
20861;SDS011;10591;52.532;13.348;2023-02-28T01:12:29;5.23;;;4.07;;
20861;SDS011;10591;52.532;13.348;2023-02-28T01:15:00;5.78;;;4.03;;
20861;SDS011;10591;52.532;13.348;2023-02-28T01:17:30;4.73;;;3.67;;
20861;SDS011;10591;52.532;13.348;2023-02-28T01:20:01;5.43;;;4.03;;
20861;SDS011;10591;52.532;13.348;2023-02-28T01:22:32;7.33;;;4.37;;
20861;SDS011;10591;52.532;13.348;2023-02-28T01:25:04;6.97;;;4.50;;
20861;SDS011;10591;52.532;13.348;2023-02-28T01:27:35;5.62;;;4.20;;
20861;SDS011;10591;52.532;13.348;2023-02-28T01:30:06;5.90;;;4.45;;
20861;SDS011;10591;52.532;13.348;2023-02-28T01:32:37;6.65;;;4.05;;
20861;SDS011;10591;52.532;13.348;2023-02-28T01:35:08;5.13;;;4.13;;
20861;SDS011;10591;52.532;13.348;2023-02-28T01:37:38;7.53;;;5.37;;
20861;SDS011;10591;52.532;13.348;2023-02-28T01:40:11;7.70;;;5.20;;
20861;SDS011;10591;52.532;13.348;2023-02-28T01:42:42;7.97;;;5.10;;
20861;SDS011;10591;52.532;13.348;2023-02-28T01:45:24;6.40;;;4.43;;
20861;SDS011;10591;52.532;13.348;2023-02-28T01:47:58;8.65;;;5.42;;
20861;SDS011;10591;52.532;13.348;2023-02-28T01:50:39;8.60;;;4.47;;
20861;SDS011;10591;52.532;13.348;2023-02-28T01:53:11;7.33;;;4.42;;
20861;SDS011;10591;52.532;13.348;2023-02-28T01:55:45;6.70;;;4.40;;
20861;SDS011;10591;52.532;13.348;2023-02-28T01:58:17;6.35;;;4.62;;
20861;SDS011;10591;52.532;13.348;2023-02-28T02:00:48;5.67;;;4.10;;
20861;SDS011;10591;52.532;13.348;2023-02-28T02:03:19;6.37;;;4.50;;
20861;SDS011;10591;52.532;13.348;2023-02-28T02:05:50;7.37;;;4.40;;
20861;SDS011;10591;52.532;13.348;2023-02-28T02:08:21;8.83;;;4.73;;
20861;SDS011;10591;52.532;13.348;2023-02-28T02:11:02;6.80;;;4.30;;
20861;SDS011;10591;52.532;13.348;2023-02-28T02:25:39;6.37;;;4.62;;
20861;SDS011;10591;52.532;13.348;2023-02-28T02:27:38;6.30;;;4.47;;
20861;SDS011;10591;52.532;13.348;2023-02-28T02:36:02;5.67;;;4.83;;
20861;SDS011;10591;52.532;13.348;2023-02-28T02:38:47;6.90;;;4.70;;
20861;SDS011;10591;52.532;13.348;2023-02-28T02:41:36;6.73;;;4.77;;
20861;SDS011;10591;52.532;13.348;2023-02-28T02:46:42;7.78;;;5.05;;
20861;SDS011;10591;52.532;13.348;2023-02-28T02:49:15;7.13;;;4.73;;
20861;SDS011;10591;52.532;13.348;2023-02-28T02:51:48;7.47;;;4.97;;
20861;SDS011;10591;52.532;13.348;2023-02-28T02:54:22;7.07;;;4.80;;
20861;SDS011;10591;52.532;13.348;2023-02-28T02:56:57;7.40;;;4.90;;
20861;SDS011;10591;52.532;13.348;2023-02-28T02:59:30;8.00;;;5.13;;
20861;SDS011;10591;52.532;13.348;2023-02-28T03:02:02;6.87;;;5.30;;
20861;SDS011;10591;52.532;13.348;2023-02-28T03:04:40;8.63;;;5.20;;
20861;SDS011;10591;52.532;13.348;2023-02-28T03:07:15;7.90;;;5.30;;
20861;SDS011;10591;52.532;13.348;2023-02-28T03:09:52;7.45;;;5.12;;
20861;SDS011;10591;52.532;13.348;2023-02-28T03:12:28;7.67;;;5.07;;
20861;SDS011;10591;52.532;13.348;2023-02-28T03:15:16;9.70;;;5.17;;
20861;SDS011;10591;52.532;13.348;2023-02-28T03:20:38;7.47;;;5.10;;
20861;SDS011;10591;52.532;13.348;2023-02-28T03:23:27;7.37;;;5.20;;
20861;SDS011;10591;52.532;13.348;2023-02-28T03:26:02;6.17;;;5.30;;
20861;SDS011;10591;52.532;13.348;2023-02-28T03:28:50;9.37;;;5.33;;
20861;SDS011;10591;52.532;13.348;2023-02-28T03:31:38;10.08;;;5.67;;
20861;SDS011;10591;52.532;13.348;2023-02-28T03:34:19;7.73;;;5.47;;
20861;SDS011;10591;52.532;13.348;2023-02-28T03:36:48;8.13;;;6.13;;
20861;SDS011;10591;52.532;13.348;2023-02-28T03:39:34;7.77;;;5.53;;
20861;SDS011;10591;52.532;13.348;2023-02-28T03:42:09;8.37;;;5.50;;
20861;SDS011;10591;52.532;13.348;2023-02-28T03:44:45;6.50;;;5.20;;
20861;SDS011;10591;52.532;13.348;2023-02-28T03:47:20;7.63;;;5.27;;
20861;SDS011;10591;52.532;13.348;2023-02-28T03:49:59;8.50;;;5.70;;
20861;SDS011;10591;52.532;13.348;2023-02-28T03:52:37;7.33;;;5.40;;
20861;SDS011;10591;52.532;13.348;2023-02-28T03:55:10;7.40;;;5.13;;
20861;SDS011;10591;52.532;13.348;2023-02-28T04:00:29;8.10;;;5.90;;
20861;SDS011;10591;52.532;13.348;2023-02-28T04:03:01;8.43;;;5.90;;
20861;SDS011;10591;52.532;13.348;2023-02-28T04:05:32;9.13;;;5.53;;
20861;SDS011;10591;52.532;13.348;2023-02-28T04:08:05;8.98;;;5.70;;
20861;SDS011;10591;52.532;13.348;2023-02-28T04:10:37;8.33;;;5.20;;
20861;SDS011;10591;52.532;13.348;2023-02-28T04:13:10;10.15;;;6.20;;
20861;SDS011;10591;52.532;13.348;2023-02-28T04:15:41;8.57;;;5.60;;
20861;SDS011;10591;52.532;13.348;2023-02-28T04:18:11;7.97;;;5.80;;
20861;SDS011;10591;52.532;13.348;2023-02-28T04:20:42;7.70;;;5.77;;
20861;SDS011;10591;52.532;13.348;2023-02-28T04:23:14;9.37;;;5.40;;
20861;SDS011;10591;52.532;13.348;2023-02-28T04:25:44;10.17;;;6.73;;
20861;SDS011;10591;52.532;13.348;2023-02-28T04:28:16;8.35;;;5.60;;
20861;SDS011;10591;52.532;13.348;2023-02-28T04:30:47;10.10;;;5.80;;
20861;SDS011;10591;52.532;13.348;2023-02-28T04:33:19;8.30;;;5.60;;
20861;SDS011;10591;52.532;13.348;2023-02-28T04:36:00;8.03;;;6.20;;
20861;SDS011;10591;52.532;13.348;2023-02-28T04:38:33;11.50;;;6.30;;
20861;SDS011;10591;52.532;13.348;2023-02-28T04:41:06;11.50;;;6.23;;
20861;SDS011;10591;52.532;13.348;2023-02-28T04:43:37;7.97;;;5.50;;
20861;SDS011;10591;52.532;13.348;2023-02-28T04:46:08;9.40;;;6.10;;
20861;SDS011;10591;52.532;13.348;2023-02-28T04:48:39;7.53;;;5.73;;
20861;SDS011;10591;52.532;13.348;2023-02-28T04:51:11;8.60;;;5.93;;
20861;SDS011;10591;52.532;13.348;2023-02-28T04:53:43;12.13;;;6.20;;
20861;SDS011;10591;52.532;13.348;2023-02-28T04:56:15;8.87;;;6.60;;
20861;SDS011;10591;52.532;13.348;2023-02-28T04:58:46;13.50;;;9.60;;
20861;SDS011;10591;52.532;13.348;2023-02-28T05:01:22;11.90;;;8.37;;
20861;SDS011;10591;52.532;13.348;2023-02-28T05:03:55;12.77;;;7.50;;
20861;SDS011;10591;52.532;13.348;2023-02-28T05:06:29;12.70;;;6.57;;
20861;SDS011;10591;52.532;13.348;2023-02-28T05:09:02;11.33;;;6.57;;
20861;SDS011;10591;52.532;13.348;2023-02-28T05:11:33;9.63;;;6.57;;
20861;SDS011;10591;52.532;13.348;2023-02-28T05:14:05;9.38;;;5.97;;
20861;SDS011;10591;52.532;13.348;2023-02-28T05:16:38;9.48;;;6.33;;
20861;SDS011;10591;52.532;13.348;2023-02-28T05:19:09;10.93;;;7.03;;
20861;SDS011;10591;52.532;13.348;2023-02-28T05:21:41;8.13;;;6.23;;
20861;SDS011;10591;52.532;13.348;2023-02-28T05:24:13;13.97;;;7.80;;
20861;SDS011;10591;52.532;13.348;2023-02-28T05:26:44;9.60;;;6.50;;
20861;SDS011;10591;52.532;13.348;2023-02-28T05:29:14;10.60;;;6.50;;
20861;SDS011;10591;52.532;13.348;2023-02-28T05:31:45;11.73;;;6.30;;
20861;SDS011;10591;52.532;13.348;2023-02-28T05:34:16;8.87;;;6.30;;
20861;SDS011;10591;52.532;13.348;2023-02-28T05:36:47;9.37;;;6.10;;
20861;SDS011;10591;52.532;13.348;2023-02-28T05:39:17;8.23;;;6.47;;
20861;SDS011;10591;52.532;13.348;2023-02-28T05:41:50;10.63;;;6.33;;
20861;SDS011;10591;52.532;13.348;2023-02-28T05:44:20;10.10;;;7.00;;
20861;SDS011;10591;52.532;13.348;2023-02-28T05:46:51;10.37;;;7.50;;
20861;SDS011;10591;52.532;13.348;2023-02-28T05:49:21;12.33;;;6.90;;
20861;SDS011;10591;52.532;13.348;2023-02-28T05:51:52;9.23;;;6.53;;
20861;SDS011;10591;52.532;13.348;2023-02-28T05:54:22;9.50;;;6.70;;
20861;SDS011;10591;52.532;13.348;2023-02-28T05:56:53;13.43;;;7.17;;
20861;SDS011;10591;52.532;13.348;2023-02-28T05:59:23;9.63;;;6.87;;
20861;SDS011;10591;52.532;13.348;2023-02-28T06:01:54;15.30;;;8.23;;
20861;SDS011;10591;52.532;13.348;2023-02-28T06:04:25;13.47;;;8.07;;
20861;SDS011;10591;52.532;13.348;2023-02-28T06:06:57;14.07;;;9.13;;
20861;SDS011;10591;52.532;13.348;2023-02-28T06:09:28;12.47;;;8.00;;
20861;SDS011;10591;52.532;13.348;2023-02-28T06:12:00;13.90;;;8.47;;
20861;SDS011;10591;52.532;13.348;2023-02-28T06:14:34;13.85;;;7.62;;
20861;SDS011;10591;52.532;13.348;2023-02-28T06:17:04;9.43;;;7.30;;
20861;SDS011;10591;52.532;13.348;2023-02-28T06:19:36;12.10;;;8.03;;
20861;SDS011;10591;52.532;13.348;2023-02-28T06:22:09;12.13;;;8.70;;
20861;SDS011;10591;52.532;13.348;2023-02-28T06:24:40;10.80;;;7.30;;
20861;SDS011;10591;52.532;13.348;2023-02-28T06:27:12;10.40;;;7.73;;
20861;SDS011;10591;52.532;13.348;2023-02-28T06:29:43;12.37;;;9.13;;
20861;SDS011;10591;52.532;13.348;2023-02-28T06:32:13;14.70;;;8.67;;
20861;SDS011;10591;52.532;13.348;2023-02-28T06:34:44;12.47;;;7.90;;
20861;SDS011;10591;52.532;13.348;2023-02-28T06:37:15;13.80;;;8.53;;
20861;SDS011;10591;52.532;13.348;2023-02-28T06:39:46;13.87;;;9.43;;
20861;SDS011;10591;52.532;13.348;2023-02-28T06:42:16;13.07;;;9.13;;
20861;SDS011;10591;52.532;13.348;2023-02-28T06:44:47;11.23;;;8.60;;
20861;SDS011;10591;52.532;13.348;2023-02-28T06:47:19;13.73;;;8.63;;
20861;SDS011;10591;52.532;13.348;2023-02-28T06:49:51;14.00;;;8.95;;
20861;SDS011;10591;52.532;13.348;2023-02-28T06:52:22;14.30;;;8.80;;
20861;SDS011;10591;52.532;13.348;2023-02-28T06:54:53;16.43;;;9.90;;
20861;SDS011;10591;52.532;13.348;2023-02-28T06:57:27;21.13;;;10.70;;
20861;SDS011;10591;52.532;13.348;2023-02-28T07:00:00;14.00;;;9.63;;
20861;SDS011;10591;52.532;13.348;2023-02-28T07:02:33;13.25;;;8.78;;
20861;SDS011;10591;52.532;13.348;2023-02-28T07:05:06;11.27;;;8.03;;
20861;SDS011;10591;52.532;13.348;2023-02-28T07:07:38;11.30;;;7.75;;
20861;SDS011;10591;52.532;13.348;2023-02-28T07:10:12;14.53;;;8.50;;
20861;SDS011;10591;52.532;13.348;2023-02-28T07:12:47;12.13;;;8.77;;
20861;SDS011;10591;52.532;13.348;2023-02-28T07:15:17;13.25;;;9.38;;
20861;SDS011;10591;52.532;13.348;2023-02-28T07:17:48;20.23;;;8.93;;
20861;SDS011;10591;52.532;13.348;2023-02-28T07:20:18;17.07;;;9.50;;
20861;SDS011;10591;52.532;13.348;2023-02-28T07:22:50;15.28;;;9.73;;
20861;SDS011;10591;52.532;13.348;2023-02-28T07:25:23;14.20;;;9.50;;
20861;SDS011;10591;52.532;13.348;2023-02-28T07:27:54;17.03;;;10.10;;
20861;SDS011;10591;52.532;13.348;2023-02-28T07:30:25;18.57;;;10.82;;
20861;SDS011;10591;52.532;13.348;2023-02-28T07:32:56;19.93;;;12.03;;
20861;SDS011;10591;52.532;13.348;2023-02-28T07:35:28;19.03;;;10.67;;
20861;SDS011;10591;52.532;13.348;2023-02-28T07:37:58;15.00;;;8.77;;
20861;SDS011;10591;52.532;13.348;2023-02-28T07:40:30;11.77;;;8.20;;
20861;SDS011;10591;52.532;13.348;2023-02-28T07:43:00;14.30;;;9.50;;
20861;SDS011;10591;52.532;13.348;2023-02-28T07:45:32;14.70;;;8.98;;
20861;SDS011;10591;52.532;13.348;2023-02-28T07:48:03;17.75;;;11.50;;
20861;SDS011;10591;52.532;13.348;2023-02-28T07:50:34;14.18;;;9.43;;
20861;SDS011;10591;52.532;13.348;2023-02-28T07:53:04;15.27;;;10.47;;
20861;SDS011;10591;52.532;13.348;2023-02-28T07:55:35;15.43;;;10.70;;
20861;SDS011;10591;52.532;13.348;2023-02-28T07:58:06;16.60;;;10.58;;
20861;SDS011;10591;52.532;13.348;2023-02-28T08:00:36;15.93;;;10.55;;
20861;SDS011;10591;52.532;13.348;2023-02-28T08:03:10;12.63;;;8.05;;
20861;SDS011;10591;52.532;13.348;2023-02-28T08:05:42;12.83;;;7.17;;
20861;SDS011;10591;52.532;13.348;2023-02-28T08:08:13;8.20;;;5.53;;
20861;SDS011;10591;52.532;13.348;2023-02-28T08:10:45;10.03;;;7.10;;
20861;SDS011;10591;52.532;13.348;2023-02-28T08:13:16;6.03;;;5.20;;
20861;SDS011;10591;52.532;13.348;2023-02-28T08:15:46;7.40;;;5.08;;
20861;SDS011;10591;52.532;13.348;2023-02-28T08:18:17;10.20;;;6.42;;
20861;SDS011;10591;52.532;13.348;2023-02-28T08:20:48;6.65;;;4.95;;
20861;SDS011;10591;52.532;13.348;2023-02-28T08:23:18;5.67;;;3.50;;
20861;SDS011;10591;52.532;13.348;2023-02-28T08:25:58;3.83;;;3.03;;
20861;SDS011;10591;52.532;13.348;2023-02-28T08:28:28;6.22;;;4.00;;
20861;SDS011;10591;52.532;13.348;2023-02-28T08:30:58;3.90;;;3.03;;
20861;SDS011;10591;52.532;13.348;2023-02-28T08:33:28;5.43;;;3.50;;
20861;SDS011;10591;52.532;13.348;2023-02-28T08:36:02;4.65;;;3.65;;
20861;SDS011;10591;52.532;13.348;2023-02-28T08:38:34;5.85;;;4.37;;
20861;SDS011;10591;52.532;13.348;2023-02-28T08:41:07;4.95;;;3.33;;
20861;SDS011;10591;52.532;13.348;2023-02-28T08:43:39;4.33;;;3.10;;
20861;SDS011;10591;52.532;13.348;2023-02-28T08:46:11;4.65;;;3.00;;
20861;SDS011;10591;52.532;13.348;2023-02-28T08:48:43;6.90;;;2.80;;
20861;SDS011;10591;52.532;13.348;2023-02-28T08:51:15;6.42;;;3.37;;
20861;SDS011;10591;52.532;13.348;2023-02-28T08:53:53;4.20;;;2.50;;
20861;SDS011;10591;52.532;13.348;2023-02-28T08:56:24;5.73;;;2.60;;
20861;SDS011;10591;52.532;13.348;2023-02-28T08:58:56;4.40;;;2.67;;
20861;SDS011;10591;52.532;13.348;2023-02-28T09:01:27;3.52;;;3.12;;
20861;SDS011;10591;52.532;13.348;2023-02-28T09:03:59;4.90;;;3.20;;
20861;SDS011;10591;52.532;13.348;2023-02-28T09:06:32;5.70;;;4.25;;
20861;SDS011;10591;52.532;13.348;2023-02-28T09:09:05;4.42;;;2.70;;
20861;SDS011;10591;52.532;13.348;2023-02-28T09:11:36;4.57;;;3.10;;
20861;SDS011;10591;52.532;13.348;2023-02-28T09:14:10;6.08;;;4.22;;
20861;SDS011;10591;52.532;13.348;2023-02-28T09:16:42;6.90;;;5.10;;
20861;SDS011;10591;52.532;13.348;2023-02-28T09:19:12;4.42;;;3.00;;
20861;SDS011;10591;52.532;13.348;2023-02-28T09:21:43;3.98;;;3.00;;
20861;SDS011;10591;52.532;13.348;2023-02-28T09:24:15;4.47;;;2.85;;
20861;SDS011;10591;52.532;13.348;2023-02-28T09:26:46;4.55;;;2.80;;
20861;SDS011;10591;52.532;13.348;2023-02-28T09:29:19;5.03;;;2.67;;
20861;SDS011;10591;52.532;13.348;2023-02-28T09:31:50;2.92;;;2.70;;
20861;SDS011;10591;52.532;13.348;2023-02-28T09:34:21;4.95;;;2.55;;
20861;SDS011;10591;52.532;13.348;2023-02-28T09:36:51;3.22;;;2.58;;
20861;SDS011;10591;52.532;13.348;2023-02-28T09:39:24;3.67;;;2.83;;
20861;SDS011;10591;52.532;13.348;2023-02-28T09:41:58;5.45;;;3.90;;
20861;SDS011;10591;52.532;13.348;2023-02-28T09:44:32;7.28;;;4.00;;
20861;SDS011;10591;52.532;13.348;2023-02-28T09:49:56;5.10;;;2.40;;
20861;SDS011;10591;52.532;13.348;2023-02-28T09:52:30;4.87;;;2.67;;
20861;SDS011;10591;52.532;13.348;2023-02-28T09:58:01;4.00;;;3.70;;
20861;SDS011;10591;52.532;13.348;2023-02-28T10:00:34;2.87;;;2.37;;
20861;SDS011;10591;52.532;13.348;2023-02-28T10:06:17;4.03;;;2.90;;
20861;SDS011;10591;52.532;13.348;2023-02-28T10:11:38;2.83;;;2.42;;
20861;SDS011;10591;52.532;13.348;2023-02-28T10:16:53;3.42;;;2.55;;
20861;SDS011;10591;52.532;13.348;2023-02-28T10:19:38;3.85;;;2.85;;
20861;SDS011;10591;52.532;13.348;2023-02-28T10:22:37;4.35;;;2.75;;
20861;SDS011;10591;52.532;13.348;2023-02-28T10:25:11;5.37;;;2.72;;
20861;SDS011;10591;52.532;13.348;2023-02-28T10:27:54;3.17;;;2.75;;
20861;SDS011;10591;52.532;13.348;2023-02-28T10:30:28;4.67;;;2.58;;
20861;SDS011;10591;52.532;13.348;2023-02-28T10:32:59;5.22;;;3.12;;
20861;SDS011;10591;52.532;13.348;2023-02-28T10:35:30;4.40;;;3.02;;
20861;SDS011;10591;52.532;13.348;2023-02-28T10:38:04;3.92;;;2.87;;
20861;SDS011;10591;52.532;13.348;2023-02-28T10:40:36;3.65;;;2.80;;
20861;SDS011;10591;52.532;13.348;2023-02-28T10:45:56;3.42;;;2.58;;
20861;SDS011;10591;52.532;13.348;2023-02-28T10:48:30;2.95;;;2.35;;
20861;SDS011;10591;52.532;13.348;2023-02-28T10:51:12;3.65;;;2.10;;
20861;SDS011;10591;52.532;13.348;2023-02-28T10:53:55;4.05;;;2.70;;
20861;SDS011;10591;52.532;13.348;2023-02-28T10:56:28;3.30;;;2.55;;
20861;SDS011;10591;52.532;13.348;2023-02-28T10:59:22;4.90;;;2.40;;
20861;SDS011;10591;52.532;13.348;2023-02-28T11:01:42;3.50;;;2.52;;
20861;SDS011;10591;52.532;13.348;2023-02-28T11:04:17;2.95;;;2.27;;
20861;SDS011;10591;52.532;13.348;2023-02-28T11:07:02;4.03;;;2.67;;
20861;SDS011;10591;52.532;13.348;2023-02-28T11:09:35;2.55;;;2.20;;
20861;SDS011;10591;52.532;13.348;2023-02-28T11:14:58;4.58;;;2.72;;
20861;SDS011;10591;52.532;13.348;2023-02-28T11:17:33;3.42;;;2.67;;
20861;SDS011;10591;52.532;13.348;2023-02-28T11:20:06;3.05;;;2.40;;
20861;SDS011;10591;52.532;13.348;2023-02-28T11:22:43;2.77;;;2.33;;
20861;SDS011;10591;52.532;13.348;2023-02-28T11:25:28;4.08;;;2.33;;
20861;SDS011;10591;52.532;13.348;2023-02-28T11:28:23;5.87;;;2.75;;
20861;SDS011;10591;52.532;13.348;2023-02-28T11:31:03;2.90;;;2.55;;
20861;SDS011;10591;52.532;13.348;2023-02-28T11:33:55;4.85;;;2.90;;
20861;SDS011;10591;52.532;13.348;2023-02-28T11:36:26;3.95;;;2.80;;
20861;SDS011;10591;52.532;13.348;2023-02-28T11:39:01;3.35;;;2.65;;
20861;SDS011;10591;52.532;13.348;2023-02-28T11:44:20;4.92;;;3.00;;
20861;SDS011;10591;52.532;13.348;2023-02-28T11:47:12;4.17;;;2.98;;
20861;SDS011;10591;52.532;13.348;2023-02-28T11:52:53;3.10;;;2.80;;
20861;SDS011;10591;52.532;13.348;2023-02-28T11:55:32;4.75;;;3.33;;
20861;SDS011;10591;52.532;13.348;2023-02-28T12:06:18;3.77;;;3.30;;
20861;SDS011;10591;52.532;13.348;2023-02-28T12:15:04;5.45;;;3.50;;
20861;SDS011;10591;52.532;13.348;2023-02-28T12:17:55;4.50;;;2.98;;
20861;SDS011;10591;52.532;13.348;2023-02-28T12:20:42;4.90;;;3.37;;
20861;SDS011;10591;52.532;13.348;2023-02-28T12:23:34;3.67;;;2.95;;
20861;SDS011;10591;52.532;13.348;2023-02-28T12:26:05;5.08;;;3.12;;
20861;SDS011;10591;52.532;13.348;2023-02-28T12:28:43;3.72;;;3.17;;
20861;SDS011;10591;52.532;13.348;2023-02-28T12:31:18;4.35;;;3.40;;
20861;SDS011;10591;52.532;13.348;2023-02-28T12:34:03;5.20;;;3.37;;
20861;SDS011;10591;52.532;13.348;2023-02-28T12:36:36;5.80;;;3.37;;
20861;SDS011;10591;52.532;13.348;2023-02-28T12:39:11;6.00;;;3.05;;
20861;SDS011;10591;52.532;13.348;2023-02-28T12:42:07;4.42;;;3.52;;
20861;SDS011;10591;52.532;13.348;2023-02-28T12:44:46;4.55;;;2.95;;
20861;SDS011;10591;52.532;13.348;2023-02-28T12:47:18;7.17;;;3.77;;
20861;SDS011;10591;52.532;13.348;2023-02-28T12:49:51;4.50;;;3.30;;
20861;SDS011;10591;52.532;13.348;2023-02-28T12:55:21;3.95;;;3.50;;
20861;SDS011;10591;52.532;13.348;2023-02-28T12:58:04;5.25;;;3.22;;
20861;SDS011;10591;52.532;13.348;2023-02-28T13:00:35;4.33;;;3.90;;
20861;SDS011;10591;52.532;13.348;2023-02-28T13:11:31;4.62;;;3.35;;
20861;SDS011;10591;52.532;13.348;2023-02-28T13:14:05;7.17;;;3.87;;
20861;SDS011;10591;52.532;13.348;2023-02-28T13:16:55;3.27;;;2.83;;
20861;SDS011;10591;52.532;13.348;2023-02-28T13:19:27;3.85;;;3.40;;
20861;SDS011;10591;52.532;13.348;2023-02-28T13:22:15;3.92;;;3.42;;
20861;SDS011;10591;52.532;13.348;2023-02-28T13:24:54;5.55;;;3.80;;
20861;SDS011;10591;52.532;13.348;2023-02-28T13:36:26;5.25;;;3.58;;
20861;SDS011;10591;52.532;13.348;2023-02-28T13:39:00;6.15;;;3.62;;
20861;SDS011;10591;52.532;13.348;2023-02-28T13:44:16;3.85;;;3.40;;
20861;SDS011;10591;52.532;13.348;2023-02-28T13:49:33;7.28;;;3.72;;
20861;SDS011;10591;52.532;13.348;2023-02-28T14:00:21;6.08;;;3.47;;
20861;SDS011;10591;52.532;13.348;2023-02-28T14:05:41;4.10;;;3.22;;
20861;SDS011;10591;52.532;13.348;2023-02-28T14:08:15;5.87;;;3.52;;
20861;SDS011;10591;52.532;13.348;2023-02-28T14:10:52;4.45;;;3.42;;
20861;SDS011;10591;52.532;13.348;2023-02-28T14:16:20;6.70;;;4.22;;
20861;SDS011;10591;52.532;13.348;2023-02-28T14:19:00;6.08;;;4.05;;
20861;SDS011;10591;52.532;13.348;2023-02-28T14:21:35;3.65;;;3.12;;
20861;SDS011;10591;52.532;13.348;2023-02-28T14:24:22;4.67;;;3.30;;
20861;SDS011;10591;52.532;13.348;2023-02-28T14:38:14;5.62;;;3.50;;
20861;SDS011;10591;52.532;13.348;2023-02-28T14:40:45;4.35;;;3.37;;
20861;SDS011;10591;52.532;13.348;2023-02-28T14:43:26;5.97;;;3.70;;
20861;SDS011;10591;52.532;13.348;2023-02-28T14:46:01;4.83;;;3.47;;
20861;SDS011;10591;52.532;13.348;2023-02-28T14:48:34;4.58;;;3.30;;
20861;SDS011;10591;52.532;13.348;2023-02-28T14:51:06;5.00;;;3.22;;
20861;SDS011;10591;52.532;13.348;2023-02-28T14:53:38;5.28;;;3.50;;
20861;SDS011;10591;52.532;13.348;2023-02-28T14:56:17;7.03;;;3.40;;
20861;SDS011;10591;52.532;13.348;2023-02-28T14:58:55;4.40;;;3.35;;
20861;SDS011;10591;52.532;13.348;2023-02-28T15:01:27;3.70;;;3.27;;
20861;SDS011;10591;52.532;13.348;2023-02-28T15:04:05;5.58;;;3.50;;
20861;SDS011;10591;52.532;13.348;2023-02-28T15:06:36;3.87;;;3.27;;
20861;SDS011;10591;52.532;13.348;2023-02-28T15:09:13;4.58;;;3.55;;
20861;SDS011;10591;52.532;13.348;2023-02-28T15:11:49;6.33;;;3.55;;
20861;SDS011;10591;52.532;13.348;2023-02-28T15:14:22;4.97;;;3.70;;
20861;SDS011;10591;52.532;13.348;2023-02-28T15:16:56;5.03;;;3.33;;
20861;SDS011;10591;52.532;13.348;2023-02-28T15:19:37;4.53;;;3.40;;
20861;SDS011;10591;52.532;13.348;2023-02-28T15:22:06;4.28;;;3.40;;
20861;SDS011;10591;52.532;13.348;2023-02-28T15:24:42;4.58;;;3.75;;
20861;SDS011;10591;52.532;13.348;2023-02-28T15:27:16;6.85;;;3.55;;
20861;SDS011;10591;52.532;13.348;2023-02-28T15:29:54;4.80;;;3.42;;
20861;SDS011;10591;52.532;13.348;2023-02-28T15:32:30;4.92;;;3.75;;
20861;SDS011;10591;52.532;13.348;2023-02-28T15:38:11;5.58;;;3.60;;
20861;SDS011;10591;52.532;13.348;2023-02-28T15:40:49;4.90;;;3.42;;
20861;SDS011;10591;52.532;13.348;2023-02-28T15:43:22;6.45;;;3.58;;
20861;SDS011;10591;52.532;13.348;2023-02-28T15:46:05;6.08;;;4.00;;
20861;SDS011;10591;52.532;13.348;2023-02-28T15:51:29;6.95;;;3.50;;
20861;SDS011;10591;52.532;13.348;2023-02-28T15:54:01;3.80;;;3.30;;
20861;SDS011;10591;52.532;13.348;2023-02-28T15:56:35;4.95;;;3.33;;
20861;SDS011;10591;52.532;13.348;2023-02-28T15:59:07;6.72;;;3.50;;
20861;SDS011;10591;52.532;13.348;2023-02-28T16:01:40;4.87;;;3.45;;
20861;SDS011;10591;52.532;13.348;2023-02-28T16:04:15;5.62;;;3.58;;
20861;SDS011;10591;52.532;13.348;2023-02-28T16:09:31;3.75;;;3.30;;
20861;SDS011;10591;52.532;13.348;2023-02-28T16:12:03;7.75;;;4.83;;
20861;SDS011;10591;52.532;13.348;2023-02-28T16:14:35;4.92;;;3.62;;
20861;SDS011;10591;52.532;13.348;2023-02-28T16:17:12;5.45;;;3.80;;
20861;SDS011;10591;52.532;13.348;2023-02-28T16:19:54;4.50;;;3.80;;
20861;SDS011;10591;52.532;13.348;2023-02-28T16:22:24;5.67;;;3.60;;
20861;SDS011;10591;52.532;13.348;2023-02-28T16:24:55;6.20;;;3.83;;
20861;SDS011;10591;52.532;13.348;2023-02-28T16:27:35;5.42;;;3.40;;
20861;SDS011;10591;52.532;13.348;2023-02-28T16:30:03;4.50;;;3.60;;
20861;SDS011;10591;52.532;13.348;2023-02-28T16:32:35;7.40;;;4.25;;
20861;SDS011;10591;52.532;13.348;2023-02-28T16:35:09;6.30;;;3.90;;
20861;SDS011;10591;52.532;13.348;2023-02-28T16:37:41;6.15;;;3.87;;
20861;SDS011;10591;52.532;13.348;2023-02-28T16:40:13;5.87;;;3.70;;
20861;SDS011;10591;52.532;13.348;2023-02-28T16:42:46;5.25;;;3.90;;
20861;SDS011;10591;52.532;13.348;2023-02-28T16:45:20;5.72;;;4.20;;
20861;SDS011;10591;52.532;13.348;2023-02-28T16:47:55;6.40;;;3.90;;
20861;SDS011;10591;52.532;13.348;2023-02-28T16:50:31;6.42;;;4.37;;
20861;SDS011;10591;52.532;13.348;2023-02-28T16:52:58;5.75;;;3.87;;
20861;SDS011;10591;52.532;13.348;2023-02-28T16:55:29;4.75;;;3.98;;
20861;SDS011;10591;52.532;13.348;2023-02-28T16:58:00;6.90;;;4.10;;
20861;SDS011;10591;52.532;13.348;2023-02-28T17:00:32;6.40;;;4.28;;
20861;SDS011;10591;52.532;13.348;2023-02-28T17:03:03;8.83;;;4.62;;
20861;SDS011;10591;52.532;13.348;2023-02-28T17:05:37;7.50;;;4.95;;
20861;SDS011;10591;52.532;13.348;2023-02-28T17:08:08;7.58;;;4.37;;
20861;SDS011;10591;52.532;13.348;2023-02-28T17:10:40;7.53;;;4.30;;
20861;SDS011;10591;52.532;13.348;2023-02-28T17:13:11;7.37;;;4.62;;
20861;SDS011;10591;52.532;13.348;2023-02-28T17:15:43;5.75;;;4.35;;